Time;durP1;ratioP1;P1;durP2;ratioP2;P2;SDS_P1;SDS_P2;PMS_P1;PMS_P2;Temp;Humidity;BMP_temperature;BMP_pressure;BME280_temperature;BME280_humidity;BME280_pressure;Samples;Min_cycle;Max_cycle;Signal;HPM_P1;HPM_P2
2023/01/17 00:01:10;;;;;;;3.50;0.40;;;4.20;92.40;;;;;;5133779;28;20482;-77
2023/01/17 00:09:51;;;;;;;0.68;0.30;;;4.20;92.40;;;;;;5133845;28;20062;-77
2023/01/17 00:11:45;;;;;;;1.00;0.20;;;4.20;92.30;;;;;;5133725;28;20078;-77
2023/01/17 00:14:11;;;;;;;0.60;0.40;;;4.10;92.30;;;;;;5082228;28;20047;-77
2023/01/17 00:16:36;;;;;;;1.60;0.40;;;4.20;92.30;;;;;;5115206;28;20031;-78
2023/01/17 01:35:12;;;;;;;1.08;0.25;;;3.40;92.40;;;;;;5132396;28;20126;-77
2023/01/17 01:37:38;;;;;;;0.63;0.35;;;3.30;92.40;;;;;;5113820;28;20134;-76
2023/01/17 01:40:04;;;;;;;0.35;0.20;;;3.20;92.40;;;;;;5096994;28;20043;-76
2023/01/17 01:42:29;;;;;;;0.43;0.20;;;3.00;92.60;;;;;;5132453;28;20612;-76
2023/01/17 01:44:55;;;;;;;0.22;0.20;;;2.90;92.70;;;;;;5116389;28;20130;-76
2023/01/17 01:47:29;;;;;;;0.45;0.30;;;2.70;92.70;;;;;;5117354;28;20043;-76
2023/01/17 01:49:57;;;;;;;0.17;0.17;;;2.60;92.80;;;;;;5117623;28;20058;-76
2023/01/17 01:52:26;;;;;;;0.10;0.10;;;2.50;93.00;;;;;;5100500;28;20042;-76
2023/01/17 01:54:59;;;;;;;0.20;0.13;;;2.50;93.10;;;;;;5136020;28;20495;-76
2023/01/17 01:57:31;;;;;;;0.10;0.10;;;2.50;93.10;;;;;;5117793;28;20119;-76
2023/01/17 02:00:02;;;;;;;0.15;0.13;;;2.50;93.10;;;;;;5100732;28;20047;-76
2023/01/17 02:02:29;;;;;;;0.17;0.17;;;2.50;93.10;;;;;;5117654;28;20482;-76
2023/01/17 02:04:56;;;;;;;0.30;0.20;;;2.50;93.10;;;;;;5099563;28;20117;-76
2023/01/17 02:07:28;;;;;;;0.20;0.15;;;2.40;93.00;;;;;;5098664;28;20051;-76
2023/01/17 02:09:54;;;;;;;0.10;0.10;;;2.40;93.00;;;;;;5082321;28;20039;-76
2023/01/17 02:12:20;;;;;;;0.20;0.20;;;2.50;93.00;;;;;;5135828;28;20394;-77
2023/01/17 02:14:46;;;;;;;0.20;0.20;;;2.50;92.90;;;;;;5135759;28;20092;-77
2023/01/17 02:17:29;;;;;;;0.28;0.28;;;2.50;92.90;;;;;;5135327;28;20043;-77
2023/01/17 02:20:30;;;;;;;0.10;0.10;;;2.50;92.90;;;;;;5135250;28;20043;-77
2023/01/17 02:23:29;;;;;;;1.00;0.20;;;2.50;92.90;;;;;;5120267;28;20092;-77
2023/01/17 02:26:20;;;;;;;0.10;0.10;;;2.50;92.90;;;;;;5135186;28;20579;-77
2023/01/17 02:29:20;;;;;;;0.20;0.20;;;2.40;92.90;;;;;;5135166;28;20049;-77
2023/01/17 02:31:53;;;;;;;0.17;0.17;;;2.40;92.90;;;;;;5133363;28;20047;-77
2023/01/17 02:34:37;;;;;;;0.20;0.20;;;2.40;92.90;;;;;;5100801;28;20047;-78
2023/01/17 02:37:13;;;;;;;0.10;0.10;;;2.50;92.90;;;;;;5083707;28;20040;-77
2023/01/17 02:39:50;;;;;;;0.10;0.10;;;2.50;92.90;;;;;;5117041;28;20039;-77
2023/01/17 02:42:18;;;;;;;0.30;0.10;;;2.50;92.90;;;;;;5100381;28;20130;-77
2023/01/17 02:44:44;;;;;;;0.10;0.10;;;2.50;92.80;;;;;;5116414;28;20474;-77
2023/01/17 02:47:27;;;;;;;0.43;0.20;;;2.60;92.80;;;;;;5099362;28;20050;-77
2023/01/17 02:49:58;;;;;;;1.42;0.20;;;2.50;92.70;;;;;;5099550;28;20482;-77
2023/01/17 02:52:56;;;;;;;0.20;0.20;;;2.60;92.70;;;;;;5135151;28;20059;-77
2023/01/17 02:55:56;;;;;;;0.20;0.20;;;2.50;92.70;;;;;;5134423;27;20118;-77
2023/01/17 02:58:39;;;;;;;0.57;0.28;;;2.50;92.70;;;;;;5119300;28;20520;-76
2023/01/17 03:01:28;;;;;;;0.35;0.20;;;2.50;92.70;;;;;;5117347;28;20039;-77
2023/01/17 03:04:01;;;;;;;0.40;0.40;;;2.50;92.70;;;;;;5134694;28;20035;-77
2023/01/17 03:06:38;;;;;;;0.98;0.50;;;2.50;92.60;;;;;;5116185;28;20042;-76
2023/01/17 03:09:05;;;;;;;0.38;0.20;;;2.40;92.60;;;;;;5134521;28;20405;-77
2023/01/17 03:11:31;;;;;;;0.77;0.45;;;2.30;92.60;;;;;;5081778;28;20040;-77
2023/01/17 03:13:57;;;;;;;0.22;0.22;;;2.20;92.70;;;;;;5134553;28;20511;-77
2023/01/17 03:16:25;;;;;;;0.38;0.30;;;2.20;92.80;;;;;;5099107;28;20054;-76
2023/01/17 03:18:52;;;;;;;0.80;0.20;;;2.20;92.90;;;;;;5116173;28;20035;-77
2023/01/17 03:21:19;;;;;;;1.08;0.20;;;2.10;92.90;;;;;;5116251;28;20072;-77
2023/01/17 03:23:44;;;;;;;0.20;0.20;;;2.10;92.90;;;;;;5116005;28;20476;-77
2023/01/17 03:26:10;;;;;;;0.10;0.10;;;2.10;92.90;;;;;;5098924;28;20066;-77
2023/01/17 03:28:35;;;;;;;0.57;0.20;;;2.10;92.90;;;;;;5134021;28;20114;-77
2023/01/17 03:31:01;;;;;;;0.25;0.20;;;2.20;92.90;;;;;;5133974;28;20035;-77
2023/01/17 03:33:27;;;;;;;0.20;0.20;;;2.10;92.90;;;;;;5134134;28;20460;-77
2023/01/17 03:35:53;;;;;;;0.20;0.20;;;2.10;92.80;;;;;;5134079;28;20426;-77
2023/01/17 03:38:19;;;;;;;1.35;0.30;;;2.10;92.90;;;;;;5134429;28;20122;-77
2023/01/17 03:40:45;;;;;;;0.30;0.20;;;2.10;92.90;;;;;;5115922;28;20050;-77
2023/01/17 03:43:11;;;;;;;0.32;0.10;;;2.00;92.90;;;;;;5115473;28;20043;-77
2023/01/17 03:45:36;;;;;;;0.40;0.20;;;2.00;92.90;;;;;;5134460;28;20043;-77
2023/01/17 03:48:02;;;;;;;0.10;0.10;;;2.00;92.90;;;;;;5115831;28;20050;-77
2023/01/17 03:50:28;;;;;;;0.10;0.10;;;1.90;92.90;;;;;;5098415;28;20050;-77
2023/01/17 03:52:54;;;;;;;0.10;0.10;;;1.90;92.90;;;;;;5114713;28;20036;-77
2023/01/17 03:55:19;;;;;;;0.25;0.20;;;1.80;92.90;;;;;;5115598;28;20046;-77
2023/01/17 03:57:45;;;;;;;0.63;0.15;;;1.80;92.90;;;;;;5098435;28;20103;-77
2023/01/17 04:00:11;;;;;;;0.10;0.10;;;1.80;93.00;;;;;;5115386;28;20055;-77
2023/01/17 04:02:37;;;;;;;0.10;0.10;;;1.80;93.00;;;;;;5083195;28;20036;-77
2023/01/17 04:05:03;;;;;;;0.20;0.13;;;1.80;93.00;;;;;;5133600;28;20559;-77
2023/01/17 04:07:28;;;;;;;0.25;0.10;;;1.80;93.00;;;;;;5133025;27;20035;-77
2023/01/17 04:09:54;;;;;;;0.10;0.10;;;1.70;93.10;;;;;;5133559;28;20610;-77
2023/01/17 04:12:20;;;;;;;0.10;0.10;;;1.70;93.10;;;;;;5115253;28;20042;-77
2023/01/17 04:14:46;;;;;;;0.57;0.20;;;1.70;93.10;;;;;;5133464;28;20046;-77
2023/01/17 04:17:15;;;;;;;0.80;0.20;;;1.70;93.10;;;;;;5133370;28;21339;-77
2023/01/17 04:19:41;;;;;;;0.25;0.25;;;1.70;93.10;;;;;;5133486;28;20046;-78
2023/01/17 04:22:06;;;;;;;0.32;0.20;;;1.70;93.10;;;;;;5133406;28;20099;-77
2023/01/17 04:24:32;;;;;;;0.20;0.20;;;1.70;93.10;;;;;;5098109;28;20126;-77
2023/01/17 04:26:58;;;;;;;0.13;0.10;;;1.70;93.10;;;;;;5115754;28;20051;-78
2023/01/17 04:29:24;;;;;;;0.25;0.25;;;1.70;93.10;;;;;;5097930;28;20050;-78
2023/01/17 04:31:49;;;;;;;0.10;0.10;;;1.70;93.10;;;;;;5115338;28;20065;-77
2023/01/17 04:34:15;;;;;;;0.20;0.20;;;1.70;93.10;;;;;;5133288;28;20039;-77
2023/01/17 04:36:41;;;;;;;0.73;0.35;;;1.70;93.00;;;;;;5098007;28;20035;-77
2023/01/17 04:39:06;;;;;;;0.47;0.40;;;1.70;93.00;;;;;;5114941;28;20035;-77
2023/01/17 04:41:32;;;;;;;0.30;0.20;;;1.70;93.00;;;;;;5114923;28;20073;-77
2023/01/17 04:43:58;;;;;;;0.47;0.32;;;1.70;92.90;;;;;;5114868;28;20043;-78
2023/01/17 04:46:24;;;;;;;0.35;0.35;;;1.70;92.90;;;;;;5133387;28;20035;-77
2023/01/17 04:48:49;;;;;;;0.50;0.40;;;1.70;92.90;;;;;;5099922;28;20454;-78
2023/01/17 04:51:15;;;;;;;0.20;0.20;;;1.70;92.90;;;;;;5080180;28;20491;-78
2023/01/17 04:53:41;;;;;;;0.20;0.20;;;1.70;92.90;;;;;;5100581;28;20071;-78
2023/01/17 04:56:06;;;;;;;0.30;0.30;;;1.70;93.00;;;;;;5115099;28;20035;-77
2023/01/17 04:58:32;;;;;;;0.57;0.28;;;1.70;93.00;;;;;;5114804;28;20046;-78
2023/01/17 05:01:03;;;;;;;0.20;0.20;;;1.70;92.90;;;;;;5132874;28;20035;-77
2023/01/17 05:03:29;;;;;;;0.40;0.20;;;1.70;93.00;;;;;;5133190;28;20039;-78
2023/01/17 05:05:55;;;;;;;0.10;0.10;;;1.70;92.90;;;;;;5114806;28;20285;-77
2023/01/17 05:08:20;;;;;;;0.17;0.13;;;1.70;92.90;;;;;;5115156;28;20466;-77
2023/01/17 05:10:46;;;;;;;0.47;0.30;;;1.70;92.90;;;;;;5114347;28;20047;-78
2023/01/17 05:13:12;;;;;;;0.40;0.40;;;1.70;92.90;;;;;;5096277;28;20039;-78
2023/01/17 05:15:38;;;;;;;0.82;0.30;;;1.70;92.90;;;;;;5114894;28;20372;-77
2023/01/17 05:18:07;;;;;;;0.50;0.35;;;1.70;92.90;;;;;;5115711;28;20152;-77
2023/01/17 05:20:34;;;;;;;0.32;0.32;;;1.70;92.90;;;;;;5102196;28;20047;-77
2023/01/17 05:23:00;;;;;;;0.40;0.30;;;1.70;92.90;;;;;;5101062;28;20570;-77
2023/01/17 05:25:28;;;;;;;0.47;0.30;;;1.70;92.90;;;;;;5136588;28;20490;-77
2023/01/17 05:27:54;;;;;;;0.50;0.40;;;1.70;92.90;;;;;;5118226;28;20039;-77
2023/01/17 05:30:21;;;;;;;0.40;0.40;;;1.70;92.90;;;;;;5118713;28;20043;-77
2023/01/17 05:32:50;;;;;;;0.50;0.28;;;1.70;92.90;;;;;;5117869;28;20045;-77
2023/01/17 05:35:18;;;;;;;0.73;0.20;;;1.70;92.90;;;;;;5101777;28;20044;-77
2023/01/17 05:37:47;;;;;;;0.93;0.45;;;1.70;92.90;;;;;;5099443;28;20127;-77
2023/01/17 05:40:15;;;;;;;0.55;0.40;;;1.70;92.90;;;;;;5118218;28;20043;-77
2023/01/17 05:42:47;;;;;;;0.20;0.20;;;1.70;92.90;;;;;;5118517;28;20039;-77
2023/01/17 05:45:15;;;;;;;0.55;0.38;;;1.70;92.90;;;;;;5100799;28;20035;-77
2023/01/17 05:47:43;;;;;;;0.55;0.40;;;1.70;92.90;;;;;;5118178;28;20044;-77
2023/01/17 05:50:11;;;;;;;0.75;0.30;;;1.70;92.90;;;;;;5118162;28;20035;-77
2023/01/17 05:52:37;;;;;;;0.40;0.35;;;1.70;92.90;;;;;;5100838;28;20043;-77
2023/01/17 05:55:05;;;;;;;0.30;0.30;;;1.70;92.90;;;;;;5117637;28;20039;-77
2023/01/17 05:57:31;;;;;;;0.30;0.30;;;1.70;92.90;;;;;;5136354;28;20036;-78
2023/01/17 05:59:56;;;;;;;0.30;0.25;;;1.60;92.90;;;;;;5136384;28;20492;-78
2023/01/17 06:02:22;;;;;;;0.80;0.30;;;1.60;92.90;;;;;;5136299;28;20043;-77
2023/01/17 06:04:47;;;;;;;0.25;0.25;;;1.60;92.90;;;;;;5117510;28;20047;-78
2023/01/17 06:07:13;;;;;;;0.20;0.20;;;1.70;93.00;;;;;;5100701;28;20039;-77
2023/01/17 06:09:39;;;;;;;1.73;0.30;;;1.60;93.00;;;;;;5117877;28;20043;-77
2023/01/17 06:12:04;;;;;;;0.30;0.20;;;1.60;93.00;;;;;;5117439;28;20375;-78
2023/01/17 06:14:30;;;;;;;0.30;0.20;;;1.60;93.00;;;;;;5101736;28;20097;-81
2023/01/17 06:16:55;;;;;;;0.22;0.22;;;1.60;93.00;;;;;;5101434;28;20461;-80
2023/01/17 06:19:21;;;;;;;0.13;0.13;;;1.60;93.00;;;;;;5100503;28;20039;-80
2023/01/17 06:21:47;;;;;;;0.20;0.20;;;1.50;93.00;;;;;;5089920;28;20043;-78
2023/01/17 06:24:12;;;;;;;0.32;0.22;;;1.50;93.00;;;;;;5117429;28;20073;-77
2023/01/17 06:26:38;;;;;;;0.55;0.30;;;1.50;93.00;;;;;;5135724;28;20035;-77
2023/01/17 06:29:04;;;;;;;0.45;0.20;;;1.50;93.00;;;;;;5116987;27;20088;-77
2023/01/17 06:31:29;;;;;;;0.32;0.28;;;1.40;93.00;;;;;;5099360;28;20035;-78
2023/01/17 06:33:55;;;;;;;0.20;0.20;;;1.40;93.00;;;;;;5116454;28;20040;-78
2023/01/17 06:36:23;;;;;;;0.57;0.20;;;1.40;93.10;;;;;;5135512;28;20042;-77
2023/01/17 06:38:50;;;;;;;2.72;0.30;;;1.40;93.10;;;;;;5135346;28;20038;-77
2023/01/17 06:41:16;;;;;;;0.20;0.20;;;1.30;93.10;;;;;;5100254;28;20129;-78
2023/01/17 06:43:41;;;;;;;0.30;0.30;;;1.30;93.40;;;;;;5135425;28;21419;-77
2023/01/17 06:46:07;;;;;;;0.20;0.20;;;1.30;93.10;;;;;;5116950;28;20061;-77
2023/01/17 06:48:32;;;;;;;0.70;0.20;;;1.30;93.10;;;;;;5116922;28;20039;-77
2023/01/17 06:50:58;;;;;;;0.20;0.20;;;1.30;93.10;;;;;;5116519;28;20039;-77
2023/01/17 06:53:24;;;;;;;0.57;0.30;;;1.30;93.20;;;;;;5134996;28;20035;-77
2023/01/17 06:55:51;;;;;;;0.45;0.30;;;1.30;93.20;;;;;;5116704;28;20355;-77
2023/01/17 06:58:17;;;;;;;0.30;0.30;;;1.30;93.20;;;;;;5100076;28;20066;-77
2023/01/17 07:00:43;;;;;;;0.47;0.30;;;1.40;93.20;;;;;;5099540;28;20070;-77
2023/01/17 07:03:18;;;;;;;0.40;0.30;;;1.30;93.20;;;;;;5088343;28;20044;-77
2023/01/17 07:05:43;;;;;;;1.10;0.40;;;1.30;93.10;;;;;;5088518;28;20048;-77
2023/01/17 07:08:09;;;;;;;0.60;0.40;;;1.30;93.10;;;;;;5116185;28;20131;-77
2023/01/17 07:10:35;;;;;;;0.70;0.45;;;1.30;93.10;;;;;;5099533;28;20394;-77
2023/01/17 07:13:00;;;;;;;0.47;0.47;;;1.40;93.10;;;;;;5134689;28;20035;-77
2023/01/17 07:15:26;;;;;;;0.43;0.30;;;1.30;93.00;;;;;;5099290;28;20046;-77
2023/01/17 07:17:52;;;;;;;0.70;0.30;;;1.40;93.00;;;;;;5134847;28;20035;-77
2023/01/17 07:20:17;;;;;;;0.75;0.20;;;1.40;93.00;;;;;;5101955;28;20087;-78
2023/01/17 07:22:44;;;;;;;0.20;0.20;;;1.40;93.10;;;;;;5084669;28;20075;-78
2023/01/17 07:25:09;;;;;;;0.30;0.30;;;1.40;93.10;;;;;;5097268;28;20078;-77
2023/01/17 07:27:35;;;;;;;0.45;0.40;;;1.40;93.10;;;;;;5098999;28;20129;-77
2023/01/17 07:30:01;;;;;;;0.50;0.22;;;1.40;93.10;;;;;;5098909;28;20513;-78
2023/01/17 07:32:27;;;;;;;0.43;0.40;;;1.40;93.10;;;;;;5115157;28;20038;-78
2023/01/17 07:34:56;;;;;;;1.35;0.45;;;1.40;93.10;;;;;;5134859;28;20046;-77
2023/01/17 07:37:21;;;;;;;0.20;0.20;;;1.50;93.10;;;;;;5134545;28;20398;-78
2023/01/17 07:39:48;;;;;;;0.57;0.40;;;1.40;93.00;;;;;;5134323;28;20046;-78
2023/01/17 07:42:14;;;;;;;0.93;0.47;;;1.40;93.00;;;;;;5116289;28;20031;-78
2023/01/17 07:44:42;;;;;;;1.00;0.40;;;1.40;93.00;;;;;;5097429;28;20494;-78
2023/01/17 07:47:08;;;;;;;1.67;0.70;;;1.40;93.00;;;;;;5116002;28;20074;-78
2023/01/17 07:49:34;;;;;;;0.57;0.40;;;1.40;93.00;;;;;;5099122;28;20547;-77
2023/01/17 07:52:00;;;;;;;0.68;0.50;;;1.50;93.00;;;;;;5098618;28;20039;-78
2023/01/17 07:54:25;;;;;;;0.63;0.45;;;1.40;93.00;;;;;;5134596;28;20031;-77
2023/01/17 07:56:51;;;;;;;0.60;0.45;;;1.40;93.00;;;;;;5134658;28;20080;-77
2023/01/17 07:59:17;;;;;;;0.60;0.45;;;1.50;93.00;;;;;;5081029;28;20067;-78
2023/01/17 08:01:43;;;;;;;0.65;0.57;;;1.40;93.20;;;;;;5115788;28;20614;-78
2023/01/17 08:04:09;;;;;;;0.30;0.30;;;1.40;93.00;;;;;;5098753;28;20062;-78
2023/01/17 08:06:36;;;;;;;0.77;0.40;;;1.40;93.00;;;;;;5098906;28;20038;-77
2023/01/17 08:09:02;;;;;;;0.60;0.50;;;1.40;93.00;;;;;;5098560;28;20035;-77
2023/01/17 08:11:28;;;;;;;0.40;0.38;;;1.40;93.00;;;;;;5115527;28;20039;-77
2023/01/17 08:13:58;;;;;;;1.23;0.60;;;1.40;93.00;;;;;;5116155;28;20496;-77
2023/01/17 08:16:23;;;;;;;1.45;0.50;;;1.50;93.10;;;;;;5116145;28;20042;-77
2023/01/17 08:18:50;;;;;;;0.40;0.40;;;1.40;93.10;;;;;;5133868;28;20039;-77
2023/01/17 08:21:17;;;;;;;0.50;0.50;;;1.40;93.00;;;;;;5115227;28;20130;-78
2023/01/17 08:23:51;;;;;;;0.75;0.60;;;1.40;93.00;;;;;;5096508;28;20443;-77
2023/01/17 08:26:21;;;;;;;0.40;0.40;;;1.30;93.00;;;;;;5119966;28;20515;-77
2023/01/17 08:28:53;;;;;;;0.70;0.50;;;1.40;93.00;;;;;;5106678;28;20042;-77
2023/01/17 08:31:19;;;;;;;1.35;0.70;;;1.40;93.00;;;;;;5133655;28;20039;-77
2023/01/17 08:33:45;;;;;;;0.50;0.50;;;1.40;93.00;;;;;;5098958;28;20039;-77
2023/01/17 08:36:10;;;;;;;1.30;0.60;;;1.40;93.00;;;;;;5098600;28;20039;-77
2023/01/17 08:38:36;;;;;;;0.70;0.70;;;1.40;93.00;;;;;;5081807;28;20044;-77
2023/01/17 08:41:02;;;;;;;1.05;0.70;;;1.50;93.10;;;;;;5101744;28;20054;-77
2023/01/17 08:43:27;;;;;;;1.33;0.80;;;1.40;93.00;;;;;;5115322;28;20043;-77
2023/01/17 08:45:54;;;;;;;1.60;0.98;;;1.40;93.00;;;;;;5133360;28;20039;-77
2023/01/17 08:48:22;;;;;;;2.35;1.13;;;1.50;93.00;;;;;;5115929;28;20051;-77
2023/01/17 08:50:48;;;;;;;2.03;1.20;;;1.50;93.00;;;;;;5115018;28;20043;-77
2023/01/17 08:53:14;;;;;;;1.20;0.90;;;1.60;93.00;;;;;;5114090;28;20397;-77
2023/01/17 08:55:40;;;;;;;1.52;0.98;;;1.50;92.90;;;;;;5100416;28;20800;-77
2023/01/17 08:58:07;;;;;;;1.77;0.90;;;1.50;92.90;;;;;;5113569;28;20039;-76
2023/01/17 09:00:33;;;;;;;2.42;1.25;;;1.50;92.90;;;;;;5115403;28;20528;-78
2023/01/17 09:03:00;;;;;;;2.35;1.30;;;1.50;92.90;;;;;;5150562;28;20044;-77
2023/01/17 09:05:25;;;;;;;1.63;0.95;;;1.60;93.00;;;;;;5116992;28;20090;-76
2023/01/17 09:07:51;;;;;;;1.92;1.25;;;1.60;92.90;;;;;;5129022;28;20491;-76
2023/01/17 09:10:17;;;;;;;2.92;1.60;;;1.60;92.90;;;;;;5152345;28;20124;-76
2023/01/17 09:12:43;;;;;;;2.42;1.40;;;1.70;92.90;;;;;;5150997;28;20050;-77
2023/01/17 09:15:09;;;;;;;1.92;1.50;;;1.60;92.80;;;;;;5132416;28;20054;-77
2023/01/17 09:17:35;;;;;;;2.88;1.50;;;1.60;92.80;;;;;;5133967;28;20042;-76
2023/01/17 09:20:01;;;;;;;1.75;1.20;;;1.60;92.80;;;;;;5150714;28;20125;-76
2023/01/17 09:22:26;;;;;;;3.17;1.55;;;1.70;92.90;;;;;;5152225;28;20106;-77
2023/01/17 09:24:52;;;;;;;2.40;1.30;;;1.70;92.90;;;;;;5151925;28;20512;-77
2023/01/17 09:27:19;;;;;;;2.13;1.33;;;1.60;92.80;;;;;;5153300;28;20039;-77
2023/01/17 09:29:45;;;;;;;3.65;1.52;;;1.80;92.90;;;;;;5130192;28;20100;-77
2023/01/17 09:32:11;;;;;;;3.55;1.48;;;1.80;92.80;;;;;;5147744;28;20386;-78
2023/01/17 09:34:36;;;;;;;2.60;1.38;;;1.80;92.80;;;;;;5111386;28;20035;-77
2023/01/17 09:37:02;;;;;;;2.00;1.27;;;1.80;92.80;;;;;;5145359;28;20100;-76
2023/01/17 09:39:27;;;;;;;2.97;1.48;;;1.80;92.80;;;;;;5113158;28;20047;-77
2023/01/17 09:42:18;;;;;;;2.50;1.30;;;1.80;92.80;;;;;;5150440;28;20070;-77
2023/01/17 09:44:50;;;;;;;2.30;1.25;;;1.90;92.80;;;;;;5084017;28;20089;-76
2023/01/17 09:47:28;;;;;;;;;;;1.90;92.70;;;;;;5129794;28;20058;-76
2023/01/17 09:49:59;;;;;;;2.38;1.40;;;2.00;92.70;;;;;;5141072;28;20028;-77
2023/01/17 09:52:29;;;;;;;2.83;1.40;;;2.00;92.60;;;;;;5098644;28;20103;-77
2023/01/17 09:54:55;;;;;;;1.92;1.33;;;2.00;92.60;;;;;;5151684;28;20039;-77
2023/01/17 09:57:49;;;;;;;2.58;1.27;;;2.10;92.60;;;;;;5118743;28;20039;-77
2023/01/17 10:00:39;;;;;;;2.80;1.25;;;2.10;92.60;;;;;;5152777;28;20043;-77
2023/01/17 10:03:39;;;;;;;1.80;1.10;;;2.10;92.60;;;;;;5151796;28;20057;-76
2023/01/17 10:06:38;;;;;;;2.10;1.45;;;2.10;92.50;;;;;;5138689;28;20027;-76
2023/01/17 10:09:32;;;;;;;1.73;1.02;;;2.10;92.50;;;;;;5127313;28;20039;-77
2023/01/17 10:12:19;;;;;;;2.17;1.35;;;2.20;92.60;;;;;;5151996;28;20126;-78
2023/01/17 10:15:15;;;;;;;1.35;0.95;;;2.20;92.50;;;;;;5136317;28;20035;-77
2023/01/17 10:18:12;;;;;;;2.03;1.15;;;2.20;92.50;;;;;;5149152;28;20062;-76
2023/01/17 10:20:58;;;;;;;1.58;1.17;;;2.30;92.50;;;;;;5150882;28;20050;-77
2023/01/17 10:24:03;;;;;;;1.48;1.00;;;2.30;92.50;;;;;;5127036;28;20044;-76
2023/01/17 10:26:28;;;;;;;1.17;0.88;;;2.40;92.50;;;;;;5149695;28;20047;-76
2023/01/17 10:29:01;;;;;;;1.73;1.13;;;2.50;92.50;;;;;;5097032;28;20058;-76
2023/01/17 10:31:32;;;;;;;2.80;1.25;;;2.40;92.40;;;;;;5116965;28;20051;-76
2023/01/17 10:34:11;;;;;;;2.00;0.95;;;2.50;92.40;;;;;;5117354;28;20042;-76
2023/01/17 10:36:41;;;;;;;0.82;0.80;;;2.50;92.40;;;;;;5112295;28;20064;-77
2023/01/17 10:39:22;;;;;;;1.90;1.20;;;2.60;92.40;;;;;;5143618;28;20039;-76
2023/01/17 10:42:03;;;;;;;1.85;1.00;;;2.70;92.30;;;;;;5108587;28;20056;-76
2023/01/17 10:44:42;;;;;;;3.13;0.98;;;2.60;92.30;;;;;;5130228;28;20118;-76
2023/01/17 10:47:20;;;;;;;1.30;1.00;;;2.70;92.30;;;;;;5122874;28;20138;-77
2023/01/17 10:49:50;;;;;;;1.20;1.00;;;2.70;92.30;;;;;;5138944;28;20035;-76
2023/01/17 10:52:42;;;;;;;1.70;0.80;;;2.70;92.30;;;;;;5090827;28;20040;-76
2023/01/17 10:55:33;;;;;;;1.10;0.70;;;2.70;92.30;;;;;;5144349;28;20043;-76
2023/01/17 10:57:58;;;;;;;1.00;0.73;;;2.80;92.30;;;;;;5143763;28;20031;-76
2023/01/17 11:00:38;;;;;;;1.17;0.60;;;2.80;92.30;;;;;;5120504;28;20039;-76
2023/01/17 11:03:05;;;;;;;1.20;0.70;;;2.80;92.20;;;;;;5122459;28;20088;-76
2023/01/17 11:05:32;;;;;;;0.88;0.60;;;2.90;92.20;;;;;;5122647;28;20113;-76
2023/01/17 11:08:05;;;;;;;1.13;0.90;;;2.90;92.20;;;;;;5104585;28;20038;-76
2023/01/17 11:10:39;;;;;;;1.77;0.90;;;2.90;92.20;;;;;;5138186;28;20118;-75
2023/01/17 11:13:26;;;;;;;0.98;0.73;;;2.90;92.20;;;;;;5137426;28;20393;-76
2023/01/17 11:15:57;;;;;;;0.65;0.50;;;2.90;92.10;;;;;;5118310;28;20114;-76
2023/01/17 11:18:26;;;;;;;2.47;1.05;;;3.00;92.10;;;;;;5092577;28;20089;-76
2023/01/17 11:20:53;;;;;;;2.40;0.70;;;2.90;92.10;;;;;;5119272;28;20086;-76
2023/01/17 11:23:28;;;;;;;0.70;0.70;;;2.90;92.10;;;;;;5136553;28;20043;-76
2023/01/17 11:25:59;;;;;;;1.05;0.70;;;2.90;92.10;;;;;;5102130;28;20035;-76
2023/01/17 11:28:29;;;;;;;1.00;0.70;;;2.90;92.10;;;;;;5117934;28;20035;-76
2023/01/17 11:30:59;;;;;;;1.25;0.80;;;3.00;92.10;;;;;;5117141;28;20035;-76
2023/01/17 11:33:44;;;;;;;0.93;0.75;;;2.90;92.10;;;;;;5118212;28;20494;-76
2023/01/17 11:36:29;;;;;;;1.10;0.75;;;2.90;92.10;;;;;;5136529;28;20035;-76
2023/01/17 11:39:01;;;;;;;1.38;0.73;;;3.00;92.20;;;;;;5117116;28;20043;-76
2023/01/17 11:41:32;;;;;;;1.17;0.90;;;3.00;92.20;;;;;;5083887;28;20047;-76
2023/01/17 11:43:59;;;;;;;2.13;0.70;;;3.00;92.10;;;;;;5118133;28;20043;-76
2023/01/17 11:46:28;;;;;;;1.40;1.02;;;3.10;92.30;;;;;;5116699;28;20549;-75
2023/01/17 11:48:58;;;;;;;1.63;0.90;;;3.10;92.00;;;;;;5099291;28;20047;-75
2023/01/17 11:51:31;;;;;;;1.90;1.00;;;3.10;92.10;;;;;;5116917;28;20066;-75
2023/01/17 11:54:15;;;;;;;1.55;0.77;;;3.20;92.00;;;;;;5099214;28;20092;-75
2023/01/17 11:56:44;;;;;;;1.13;0.80;;;3.20;91.90;;;;;;5132536;28;20087;-75
2023/01/17 11:59:23;;;;;;;1.40;0.80;;;3.30;91.90;;;;;;5133933;28;20046;-75
2023/01/17 12:02:04;;;;;;;1.05;0.75;;;3.30;91.80;;;;;;5099170;28;20039;-75
2023/01/17 12:04:43;;;;;;;2.60;0.75;;;3.30;91.80;;;;;;5115140;28;20046;-76
2023/01/17 12:07:28;;;;;;;1.33;0.80;;;3.30;91.80;;;;;;5095702;28;20448;-75
2023/01/17 12:10:11;;;;;;;1.38;0.70;;;3.30;91.80;;;;;;5102179;28;20067;-76
2023/01/17 12:16:28;;;;;;;1.00;0.70;;;3.40;91.70;;;;;;5119026;28;20066;-76
2023/01/17 12:19:16;;;;;;;1.10;0.70;;;3.30;91.70;;;;;;5134549;28;20031;-76
2023/01/17 12:21:57;;;;;;;1.25;0.68;;;3.20;91.70;;;;;;5132356;28;20379;-77
2023/01/17 12:24:48;;;;;;;1.02;0.57;;;3.30;91.80;;;;;;5095475;28;20032;-76
2023/01/17 12:27:52;;;;;;;0.75;0.75;;;3.30;91.80;;;;;;5116581;27;20031;-76
2023/01/17 12:30:35;;;;;;;1.33;0.70;;;3.50;91.80;;;;;;5134931;28;20039;-76
2023/01/17 12:33:36;;;;;;;1.55;0.70;;;3.60;91.60;;;;;;5119995;28;20043;-76
2023/01/17 12:36:16;;;;;;;2.90;0.82;;;3.70;91.50;;;;;;5105761;28;20471;-76
2023/01/17 12:38:44;;;;;;;0.40;0.40;;;3.80;91.50;;;;;;5118180;28;20129;-76
2023/01/17 12:41:25;;;;;;;0.57;0.50;;;3.80;91.40;;;;;;5116848;28;20039;-76
2023/01/17 12:43:57;;;;;;;0.90;0.50;;;3.90;91.40;;;;;;5134725;28;20043;-76
2023/01/17 12:46:30;;;;;;;0.73;0.50;;;4.10;91.40;;;;;;5115655;28;20443;-74
2023/01/17 12:49:03;;;;;;;1.52;0.70;;;4.10;91.20;;;;;;5115611;28;20043;-74
2023/01/17 12:51:35;;;;;;;2.22;0.63;;;4.20;91.00;;;;;;5133411;28;20039;-76
2023/01/17 12:54:10;;;;;;;1.10;0.80;;;4.20;91.00;;;;;;5133295;28;20046;-76
2023/01/17 12:56:44;;;;;;;1.08;0.80;;;4.20;91.00;;;;;;5098141;28;20419;-76
2023/01/17 12:59:45;;;;;;;1.52;0.95;;;4.30;91.00;;;;;;5094392;28;20040;-76
2023/01/17 13:02:30;;;;;;;0.50;0.50;;;4.30;91.00;;;;;;5115041;28;20107;-77
2023/01/17 13:05:05;;;;;;;0.93;0.60;;;4.30;90.90;;;;;;5082469;28;20044;-75
2023/01/17 13:07:46;;;;;;;0.98;0.80;;;4.40;90.90;;;;;;5133300;28;20493;-76
2023/01/17 13:10:29;;;;;;;1.17;0.70;;;4.40;90.80;;;;;;5116365;28;20040;-76
2023/01/17 13:12:59;;;;;;;0.75;0.63;;;4.50;90.80;;;;;;5114988;28;20036;-76
2023/01/17 13:15:31;;;;;;;1.75;0.70;;;4.50;90.60;;;;;;5098491;28;20027;-76
2023/01/17 13:18:21;;;;;;;0.88;0.80;;;4.50;90.60;;;;;;5116097;28;20512;-76
2023/01/17 13:21:05;;;;;;;0.90;0.60;;;4.60;90.60;;;;;;5114952;28;20096;-76
2023/01/17 13:24:10;;;;;;;0.68;0.60;;;4.60;90.60;;;;;;5097630;28;20458;-76
2023/01/17 13:27:06;;;;;;;1.17;0.80;;;4.60;90.60;;;;;;5118122;28;20082;-76
2023/01/17 13:29:42;;;;;;;1.58;1.00;;;4.70;90.60;;;;;;5115113;28;20027;-76
2023/01/17 13:32:43;;;;;;;1.05;0.60;;;4.80;90.50;;;;;;5116186;28;20043;-76
2023/01/17 13:35:46;;;;;;;0.77;0.50;;;4.90;90.40;;;;;;5114380;28;20039;-76
2023/01/17 13:38:43;;;;;;;0.77;0.60;;;4.90;90.40;;;;;;5114367;28;20031;-76
2023/01/17 13:41:35;;;;;;;0.90;0.47;;;4.90;90.30;;;;;;5136865;28;20050;-76
2023/01/17 13:47:03;;;;;;;0.47;0.43;;;4.80;90.20;;;;;;5136709;28;20062;-77
2023/01/17 13:49:34;;;;;;;1.33;0.68;;;4.80;90.20;;;;;;5132923;28;20027;-77
2023/01/17 13:52:11;;;;;;;1.25;0.70;;;4.80;90.20;;;;;;5133549;28;20058;-77
2023/01/17 13:54:46;;;;;;;0.55;0.55;;;4.70;90.20;;;;;;5117426;28;20035;-77
2023/01/17 13:57:40;;;;;;;0.75;0.68;;;4.80;90.20;;;;;;5085318;28;20482;-77
2023/01/17 14:00:46;;;;;;;0.95;0.60;;;4.80;90.20;;;;;;5139029;28;20067;-77
2023/01/17 14:03:11;;;;;;;0.85;0.55;;;4.90;90.20;;;;;;5112255;28;20062;-77
2023/01/17 14:05:48;;;;;;;0.68;0.65;;;4.90;90.20;;;;;;5138712;28;20397;-77
2023/01/17 14:08:17;;;;;;;0.55;0.50;;;4.90;90.10;;;;;;5138964;28;20047;-77
2023/01/17 14:10:47;;;;;;;0.68;0.60;;;4.80;90.10;;;;;;5120953;28;20247;-77
2023/01/17 14:13:34;;;;;;;0.50;0.50;;;4.80;90.20;;;;;;5103565;28;20038;-77
2023/01/17 14:16:01;;;;;;;0.93;0.50;;;4.70;90.20;;;;;;5121277;28;20039;-77
2023/01/17 14:18:41;;;;;;;0.70;0.60;;;4.70;90.20;;;;;;5118823;28;20068;-77
2023/01/17 14:21:18;;;;;;;0.70;0.50;;;4.80;90.20;;;;;;5119511;28;20075;-77
2023/01/17 14:23:52;;;;;;;0.90;0.50;;;4.80;90.10;;;;;;5126804;28;20047;-78
2023/01/17 14:26:25;;;;;;;1.23;0.55;;;4.80;90.10;;;;;;5138730;28;20035;-77
2023/01/17 14:28:51;;;;;;;0.70;0.50;;;4.70;90.00;;;;;;5101199;28;20398;-77
2023/01/17 14:31:21;;;;;;;0.85;0.50;;;4.70;90.00;;;;;;5135414;28;20039;-77
2023/01/17 14:33:47;;;;;;;0.32;0.32;;;4.80;90.00;;;;;;5100460;28;20033;-78
2023/01/17 14:36:31;;;;;;;1.23;0.40;;;4.70;90.00;;;;;;5135120;28;20118;-77
2023/01/17 14:38:56;;;;;;;0.90;0.40;;;4.60;90.00;;;;;;5135607;28;20043;-77
2023/01/17 14:41:26;;;;;;;0.32;0.30;;;4.60;90.10;;;;;;5117108;28;20039;-77
2023/01/17 14:43:53;;;;;;;0.50;0.40;;;4.60;90.10;;;;;;5135339;28;20070;-77
2023/01/17 14:46:28;;;;;;;0.38;0.30;;;4.50;90.20;;;;;;5106186;28;20398;-78
2023/01/17 14:49:27;;;;;;;0.20;0.20;;;4.50;90.20;;;;;;5118350;28;20176;-77
2023/01/17 14:52:02;;;;;;;1.08;0.50;;;4.80;90.20;;;;;;5133371;27;20065;-77